createdAt,value
2022-08-22T00:02:46.314Z,17.30
2022-08-22T00:02:52.693Z,19.85
2022-08-22T00:02:53.605Z,17.78
2022-08-22T00:02:54.996Z,16.12
2022-08-22T00:02:56.789Z,18.87
2022-08-22T00:03:16.060Z,15.20
2022-08-22T00:06:08.108Z,15.19
2022-08-22T00:09:12.961Z,15.18
2022-08-22T00:12:15.675Z,15.13
2022-08-22T00:15:13.217Z,15.12
2022-08-22T00:18:28.508Z,15.03
2022-08-22T00:21:32.765Z,15.16
2022-08-22T00:24:41.625Z,15.30
2022-08-22T00:27:34.112Z,15.31
2022-08-22T00:30:19.945Z,15.22
2022-08-22T00:33:18.360Z,15.19
2022-08-22T00:36:18.853Z,15.11
2022-08-22T00:39:15.847Z,15.01
2022-08-22T00:42:44.299Z,15.12
2022-08-22T00:45:44.729Z,15.08
2022-08-22T00:48:46.072Z,15.05
2022-08-22T00:52:08.877Z,14.96
2022-08-22T00:55:14.276Z,15.01
2022-08-22T00:58:25.635Z,14.86
2022-08-22T01:01:14.457Z,14.82
2022-08-22T01:04:21.957Z,14.75
2022-08-22T01:07:23.219Z,14.86
2022-08-22T01:10:29.481Z,14.98
2022-08-22T01:13:43.695Z,14.96
2022-08-22T01:16:35.082Z,15.00
2022-08-22T01:19:58.424Z,14.90
2022-08-22T01:23:20.689Z,14.74
2022-08-22T01:26:25.071Z,14.93
2022-08-22T01:29:28.401Z,14.88
2022-08-22T01:32:57.686Z,14.69
2022-08-22T01:36:03.620Z,14.64
2022-08-22T01:39:03.075Z,14.56
2022-08-22T01:42:25.115Z,14.63
2022-08-22T01:45:40.997Z,14.67
2022-08-22T01:48:54.239Z,14.65
2022-08-22T01:51:51.674Z,14.67
2022-08-22T01:54:54.789Z,14.70
2022-08-22T01:57:56.230Z,14.64
2022-08-22T02:01:03.182Z,14.62
2022-08-22T02:04:04.964Z,14.80
2022-08-22T02:07:04.113Z,14.67
2022-08-22T02:10:10.574Z,14.79
2022-08-22T02:13:17.330Z,14.78
2022-08-22T02:16:32.041Z,14.71
2022-08-22T02:19:17.773Z,14.68
2022-08-22T02:22:19.695Z,14.66
2022-08-22T02:25:17.954Z,14.59
2022-08-22T02:28:15.834Z,14.47
2022-08-22T02:31:16.849Z,14.54
2022-08-22T02:34:33.975Z,14.45
2022-08-22T02:37:31.981Z,14.37
2022-08-22T02:40:30.426Z,14.32
2022-08-22T02:43:23.969Z,14.40
2022-08-22T02:46:22.124Z,14.36
2022-08-22T02:49:24.070Z,14.33
2022-08-22T02:52:18.814Z,14.36
2022-08-22T02:55:11.584Z,14.30
2022-08-22T02:58:08.527Z,14.30
2022-08-22T03:01:02.676Z,14.24
2022-08-22T03:03:49.019Z,14.22
2022-08-22T03:06:42.836Z,14.19
2022-08-22T03:09:37.025Z,14.17
2022-08-22T03:12:33.257Z,14.10
2022-08-22T03:15:28.051Z,14.11
2022-08-22T03:18:20.172Z,14.10
2022-08-22T03:21:09.432Z,14.18
2022-08-22T03:24:01.803Z,14.08
2022-08-22T03:27:08.780Z,14.11
2022-08-22T03:30:01.348Z,14.07
2022-08-22T03:32:54.610Z,14.08
2022-08-22T03:35:46.020Z,14.09
2022-08-22T03:38:34.100Z,14.00
2022-08-22T03:41:49.211Z,13.92
2022-08-22T03:44:43.651Z,13.87
2022-08-22T03:47:38.536Z,13.81
2022-08-22T03:50:45.419Z,13.74
2022-08-22T03:54:03.127Z,13.87
2022-08-22T03:57:24.219Z,13.77
2022-08-22T04:00:29.247Z,13.64
2022-08-22T04:03:42.844Z,13.52
2022-08-22T04:06:57.097Z,13.48
2022-08-22T04:10:13.850Z,13.44
2022-08-22T04:13:28.994Z,13.54
2022-08-22T04:16:43.326Z,13.51
2022-08-22T04:20:13.314Z,13.62
2022-08-22T04:23:41.213Z,13.67
2022-08-22T04:26:51.347Z,13.67
2022-08-22T04:29:49.803Z,13.61
2022-08-22T04:32:49.991Z,13.71
2022-08-22T04:35:51.378Z,13.63
2022-08-22T04:38:44.379Z,13.61
2022-08-22T04:42:29.208Z,13.74
2022-08-22T04:45:31.931Z,13.74
2022-08-22T04:48:23.773Z,13.75
2022-08-22T04:51:33.161Z,13.77
2022-08-22T04:54:53.444Z,13.88
2022-08-22T04:58:06.405Z,13.94
2022-08-22T05:01:11.938Z,14.14
2022-08-22T05:04:07.329Z,14.34
2022-08-22T05:07:03.182Z,14.26
2022-08-22T05:10:09.291Z,14.26
2022-08-22T05:13:02.671Z,14.35
2022-08-22T05:15:51.930Z,14.54
2022-08-22T05:18:45.104Z,14.70
2022-08-22T05:21:37.189Z,14.86
2022-08-22T05:24:37.408Z,15.08
2022-08-22T05:27:31.252Z,15.27
2022-08-22T05:30:28.362Z,15.36
2022-08-22T05:33:26.590Z,15.39
2022-08-22T05:36:28.801Z,15.50
2022-08-22T05:39:18.759Z,15.64
2022-08-22T05:42:04.735Z,15.87
2022-08-22T05:44:50.584Z,15.95
2022-08-22T05:48:07.856Z,16.34
2022-08-22T05:51:04.460Z,16.57
2022-08-22T05:53:56.622Z,16.88
2022-08-22T05:56:47.161Z,17.01
2022-08-22T05:59:38.287Z,17.20
2022-08-22T06:02:38.925Z,17.28
2022-08-22T06:05:36.279Z,17.68
2022-08-22T06:08:31.683Z,17.74
2022-08-22T06:11:25.514Z,18.06
2022-08-22T06:14:40.401Z,18.42
2022-08-22T06:17:34.602Z,18.66
2022-08-22T06:20:25.817Z,18.96
2022-08-22T06:23:24.760Z,19.17
2022-08-22T06:26:21.210Z,19.23
2022-08-22T06:29:09.283Z,19.44
2022-08-22T06:31:56.377Z,19.69
2022-08-22T06:34:45.233Z,19.70
2022-08-22T06:37:35.297Z,19.96
2022-08-22T06:40:21.724Z,20.41
2022-08-22T06:43:07.796Z,20.78
2022-08-22T06:45:53.434Z,20.96
2022-08-22T06:48:39.020Z,21.16
2022-08-22T06:51:27.759Z,21.36
2022-08-22T06:54:21.984Z,21.54
2022-08-22T06:57:27.020Z,21.65
2022-08-22T07:00:16.981Z,21.95
2022-08-22T07:03:13.168Z,21.93
2022-08-22T07:05:59.573Z,22.13
2022-08-22T07:08:46.089Z,22.51
2022-08-22T07:11:37.075Z,22.76
2022-08-22T07:14:41.587Z,22.92
2022-08-22T07:17:31.135Z,22.85
2022-08-22T07:20:24.496Z,23.21
2022-08-22T07:23:12.780Z,23.42
2022-08-22T07:26:08.901Z,24.08
2022-08-22T07:29:11.497Z,24.08
2022-08-22T07:32:10.672Z,24.45
2022-08-22T07:35:19.226Z,24.30
2022-08-22T07:38:33.231Z,24.66
2022-08-22T07:41:24.874Z,24.98
2022-08-22T07:44:23.995Z,25.08
2022-08-22T07:47:17.994Z,25.89
2022-08-22T07:50:12.850Z,26.11
2022-08-22T07:53:09.860Z,26.87
2022-08-22T07:55:57.695Z,27.25
2022-08-22T07:58:47.677Z,28.01
2022-08-22T08:01:34.174Z,28.35
2022-08-22T08:04:24.794Z,28.18
2022-08-22T08:07:14.741Z,28.66
2022-08-22T08:10:08.854Z,29.00
2022-08-22T08:13:02.478Z,29.88
2022-08-22T08:15:50.586Z,29.80
2022-08-22T08:18:39.107Z,30.25
2022-08-22T08:21:33.423Z,30.44
2022-08-22T08:24:41.354Z,30.86
2022-08-22T08:27:53.608Z,31.44
2022-08-22T08:30:44.811Z,32.33
2022-08-22T08:33:32.168Z,32.88
2022-08-22T08:36:38.894Z,32.99
2022-08-22T08:39:35.390Z,33.08
2022-08-22T08:43:10.704Z,32.51
2022-08-22T08:46:34.553Z,33.21
2022-08-22T08:50:15.764Z,33.17
2022-08-22T08:53:24.200Z,33.59
2022-08-22T08:56:19.651Z,34.47
2022-08-22T08:59:14.473Z,35.25
2022-08-22T09:02:05.937Z,35.74
2022-08-22T09:05:09.338Z,35.58
2022-08-22T09:08:15.038Z,36.07
2022-08-22T09:11:46.651Z,37.06
2022-08-22T09:14:54.603Z,35.35
2022-08-22T09:18:05.175Z,35.01
2022-08-22T09:21:27.597Z,37.85
2022-08-22T09:24:41.272Z,37.45
2022-08-22T09:27:33.888Z,37.96
2022-08-22T09:30:28.715Z,37.36
2022-08-22T09:33:19.615Z,38.27
2022-08-22T09:36:22.186Z,38.92
2022-08-22T09:39:41.930Z,38.98
2022-08-22T09:43:05.601Z,37.84
2022-08-22T09:46:18.640Z,39.20
2022-08-22T09:49:08.473Z,39.27
2022-08-22T09:52:14.556Z,39.75
2022-08-22T09:55:11.729Z,40.71
2022-08-22T09:58:12.762Z,42.37
2022-08-22T10:01:20.763Z,43.00
2022-08-22T10:04:44.118Z,44.09
2022-08-22T10:08:11.691Z,37.63
2022-08-22T10:11:23.761Z,33.82
2022-08-22T10:14:24.118Z,31.87
2022-08-22T10:17:22.754Z,31.04
2022-08-22T10:20:29.905Z,30.31
2022-08-22T10:23:26.846Z,30.01
2022-08-22T10:26:38.818Z,31.35
2022-08-22T10:29:34.812Z,34.91
2022-08-22T10:32:26.949Z,33.34
2022-08-22T10:35:15.346Z,32.05
2022-08-22T10:38:07.425Z,31.81
2022-08-22T10:41:17.987Z,32.88
2022-08-22T10:44:23.728Z,31.31
2022-08-22T10:47:24.104Z,29.84
2022-08-22T10:50:20.244Z,29.59
2022-08-22T10:53:37.253Z,29.63
2022-08-22T10:56:32.093Z,29.79
2022-08-22T10:59:38.523Z,29.56
2022-08-22T11:02:35.000Z,29.21
2022-08-22T11:05:32.398Z,30.27
2022-08-22T11:08:34.696Z,29.99
2022-08-22T11:11:51.417Z,31.70
2022-08-22T11:14:43.728Z,37.33
2022-08-22T11:17:59.439Z,38.53
2022-08-22T11:20:57.201Z,33.47
2022-08-22T11:24:01.063Z,33.02
2022-08-22T11:27:17.743Z,38.33
2022-08-22T11:30:18.340Z,39.24
2022-08-22T11:33:46.437Z,38.18
2022-08-22T11:36:47.070Z,34.47
2022-08-22T11:39:43.401Z,32.19
2022-08-22T11:42:47.413Z,31.77
2022-08-22T11:45:42.778Z,30.97
2022-08-22T11:48:42.541Z,31.07
2022-08-22T11:52:10.865Z,29.97
2022-08-22T11:55:18.024Z,30.43
2022-08-22T11:58:35.827Z,30.29
2022-08-22T12:01:40.575Z,29.27
2022-08-22T12:04:44.167Z,32.46
2022-08-22T12:07:33.024Z,36.86
2022-08-22T12:10:26.060Z,36.43
2022-08-22T12:13:20.078Z,37.93
2022-08-22T12:17:02.604Z,41.80
2022-08-22T12:20:18.646Z,45.39
2022-08-22T12:23:22.952Z,44.76
2022-08-22T12:26:44.966Z,43.39
2022-08-22T12:29:48.692Z,43.99
2022-08-22T12:32:48.979Z,42.74
2022-08-22T12:35:52.958Z,42.92
2022-08-22T12:39:18.041Z,43.95
2022-08-22T12:42:31.882Z,44.27
2022-08-22T12:45:24.593Z,43.39
2022-08-22T12:48:47.657Z,43.52
2022-08-22T12:51:41.002Z,43.17
2022-08-22T12:54:39.893Z,44.22
2022-08-22T12:57:54.371Z,46.01
2022-08-22T13:00:45.182Z,44.41
2022-08-22T13:03:41.032Z,44.77
2022-08-22T13:06:42.130Z,44.19
2022-08-22T13:09:38.700Z,44.53
2022-08-22T13:12:33.033Z,46.08
2022-08-22T13:15:25.730Z,45.23
2022-08-22T13:18:30.533Z,43.22
2022-08-22T13:21:21.912Z,44.40
2022-08-22T13:24:16.996Z,44.12
2022-08-22T13:27:15.645Z,44.70
2022-08-22T13:30:07.489Z,40.91
2022-08-22T13:33:03.285Z,39.19
2022-08-22T13:36:21.280Z,37.48
2022-08-22T13:39:13.236Z,34.41
2022-08-22T13:42:04.102Z,33.83
2022-08-22T13:45:05.159Z,32.60
2022-08-22T13:48:03.811Z,32.71
2022-08-22T13:51:09.713Z,33.69
2022-08-22T13:54:18.720Z,35.63
2022-08-22T13:57:26.436Z,33.71
2022-08-22T14:00:28.792Z,32.58
2022-08-22T14:03:21.247Z,32.82
2022-08-22T14:06:37.074Z,31.72
2022-08-22T14:09:40.238Z,34.92
2022-08-22T14:12:33.526Z,36.73
2022-08-22T14:15:45.055Z,36.28
2022-08-22T14:18:36.487Z,38.40
2022-08-22T14:21:42.849Z,40.72
2022-08-22T14:24:45.401Z,41.56
2022-08-22T14:27:43.831Z,43.26
2022-08-22T14:30:37.157Z,43.38
2022-08-22T14:33:26.577Z,43.66
2022-08-22T14:36:24.840Z,43.72
2022-08-22T14:39:27.412Z,40.82
2022-08-22T14:42:24.270Z,41.28
2022-08-22T14:45:33.182Z,42.66
2022-08-22T14:48:31.429Z,41.00
2022-08-22T14:51:22.971Z,43.27
2022-08-22T14:54:21.038Z,43.43
2022-08-22T14:57:12.792Z,41.38
2022-08-22T15:00:12.228Z,41.81
2022-08-22T15:03:23.457Z,41.84
2022-08-22T15:06:28.932Z,40.77
2022-08-22T15:09:52.601Z,41.72
2022-08-22T15:12:45.057Z,40.79
2022-08-22T15:15:54.282Z,41.16
2022-08-22T15:18:41.510Z,42.70
2022-08-22T15:21:41.416Z,40.75
2022-08-22T15:24:28.320Z,39.57
2022-08-22T15:27:18.740Z,40.65
2022-08-22T15:30:20.388Z,40.42
2022-08-22T15:33:23.637Z,40.64
2022-08-22T15:36:15.859Z,40.78
2022-08-22T15:39:26.586Z,39.17
2022-08-22T15:42:25.943Z,38.28
2022-08-22T15:45:29.679Z,36.45
2022-08-22T15:48:30.948Z,34.91
2022-08-22T15:51:33.959Z,34.43
2022-08-22T15:54:46.867Z,34.29
2022-08-22T15:57:47.485Z,33.81
2022-08-22T16:00:43.706Z,33.47
2022-08-22T16:03:34.012Z,33.21
2022-08-22T16:06:44.840Z,32.33
2022-08-22T16:09:43.479Z,31.93
2022-08-22T16:12:34.712Z,31.82
2022-08-22T16:15:56.374Z,30.87
2022-08-22T16:18:45.023Z,30.36
2022-08-22T16:21:30.265Z,30.29
2022-08-22T16:24:15.914Z,30.24
2022-08-22T16:27:19.086Z,29.95
2022-08-22T16:30:12.749Z,29.98
2022-08-22T16:32:59.725Z,29.84
2022-08-22T16:36:16.269Z,29.89
2022-08-22T16:39:01.967Z,29.52
2022-08-22T16:41:54.108Z,29.27
2022-08-22T16:45:05.241Z,29.05
2022-08-22T16:47:58.211Z,29.03
2022-08-22T16:51:00.323Z,28.90
2022-08-22T16:54:06.600Z,28.66
2022-08-22T16:57:05.428Z,28.65
2022-08-22T17:00:22.772Z,28.48
2022-08-22T17:03:20.521Z,28.33
2022-08-22T17:06:23.177Z,28.10
2022-08-22T17:09:43.298Z,27.90
2022-08-22T17:12:38.148Z,27.78
2022-08-22T17:15:34.666Z,27.60
2022-08-22T17:18:29.352Z,27.46
2022-08-22T17:21:25.877Z,27.19
2022-08-22T17:24:33.613Z,27.24
2022-08-22T17:27:30.093Z,27.01
2022-08-22T17:30:28.434Z,26.97
2022-08-22T17:33:27.808Z,26.85
2022-08-22T17:36:27.601Z,26.64
2022-08-22T17:39:37.614Z,26.42
2022-08-22T17:42:44.727Z,26.35
2022-08-22T17:46:03.155Z,26.02
2022-08-22T17:49:21.701Z,25.98
2022-08-22T17:52:24.977Z,25.92
2022-08-22T17:55:21.723Z,25.78
2022-08-22T17:58:37.546Z,25.71
2022-08-22T18:01:37.383Z,25.50
2022-08-22T18:04:47.396Z,25.41
2022-08-22T18:07:44.987Z,25.32
2022-08-22T18:10:38.279Z,25.26
2022-08-22T18:13:45.607Z,25.18
2022-08-22T18:16:42.759Z,25.04
2022-08-22T18:19:51.543Z,24.89
2022-08-22T18:22:39.758Z,24.82
2022-08-22T18:26:17.490Z,24.69
2022-08-22T18:29:13.728Z,24.58
2022-08-22T18:32:14.230Z,24.43
2022-08-22T18:34:59.764Z,24.52
2022-08-22T18:38:23.092Z,24.34
2022-08-22T18:41:15.855Z,24.09
2022-08-22T18:44:11.092Z,23.93
2022-08-22T18:46:59.946Z,23.96
2022-08-22T18:49:48.503Z,23.80
2022-08-22T18:52:37.546Z,23.75
2022-08-22T18:55:53.530Z,23.57
2022-08-22T18:58:45.848Z,23.39
2022-08-22T19:02:08.446Z,23.38
2022-08-22T19:05:22.024Z,23.30
2022-08-22T19:08:44.694Z,23.16
2022-08-22T19:11:52.508Z,23.04
2022-08-22T19:14:59.704Z,23.06
2022-08-22T19:18:05.876Z,22.97
2022-08-22T19:21:32.856Z,22.87
2022-08-22T19:24:27.247Z,22.74
2022-08-22T19:27:18.420Z,22.69
2022-08-22T19:30:25.559Z,22.61
2022-08-22T19:33:34.527Z,22.52
2022-08-22T19:36:32.413Z,22.47
2022-08-22T19:39:54.409Z,22.30
2022-08-22T19:42:43.141Z,22.22
2022-08-22T19:45:29.298Z,22.10
2022-08-22T19:48:15.205Z,22.16
2022-08-22T19:51:20.529Z,22.04
2022-08-22T19:54:23.174Z,21.82
2022-08-22T19:57:18.786Z,21.73
2022-08-22T20:00:12.098Z,21.79
2022-08-22T20:03:05.291Z,21.79
2022-08-22T20:06:33.776Z,21.71
2022-08-22T20:09:42.499Z,21.61
2022-08-22T20:12:49.459Z,21.56
2022-08-22T20:16:02.847Z,21.35
2022-08-22T20:19:07.695Z,21.34
2022-08-22T20:22:03.731Z,21.24
2022-08-22T20:25:03.232Z,21.28
2022-08-22T20:28:02.689Z,21.14
2022-08-22T20:30:50.898Z,21.17
2022-08-22T20:33:43.391Z,21.16
2022-08-22T20:36:32.422Z,21.14
2022-08-22T20:39:25.386Z,21.10
2022-08-22T20:42:15.878Z,21.02
2022-08-22T20:45:12.265Z,20.85
2022-08-22T20:47:58.188Z,21.01
2022-08-22T20:50:43.800Z,20.88
2022-08-22T20:53:29.097Z,20.79
2022-08-22T20:56:14.959Z,20.80
2022-08-22T20:59:01.330Z,20.79
2022-08-22T21:01:47.305Z,20.67
2022-08-22T21:05:18.543Z,20.53
2022-08-22T21:08:26.392Z,20.29
2022-08-22T21:11:40.078Z,20.48
2022-08-22T21:14:31.432Z,20.39
2022-08-22T21:17:29.234Z,20.19
2022-08-22T21:20:22.160Z,20.33
2022-08-22T21:23:13.605Z,20.20
2022-08-22T21:26:24.928Z,20.14
2022-08-22T21:29:10.453Z,20.08
2022-08-22T21:32:14.110Z,20.20
2022-08-22T21:35:00.749Z,20.13
2022-08-22T21:37:46.447Z,20.07
2022-08-22T21:40:37.831Z,20.07
2022-08-22T21:43:34.046Z,19.88
2022-08-22T21:46:28.747Z,19.91
2022-08-22T21:49:26.090Z,19.80
2022-08-22T21:52:11.518Z,19.74
2022-08-22T21:55:30.063Z,19.72
2022-08-22T21:58:36.123Z,19.69
2022-08-22T22:01:31.580Z,19.71
2022-08-22T22:04:18.344Z,19.60
2022-08-22T22:07:04.046Z,19.52
2022-08-22T22:09:54.468Z,19.52
2022-08-22T22:12:42.375Z,19.50
2022-08-22T22:15:31.873Z,19.44
2022-08-22T22:18:23.856Z,19.36
2022-08-22T22:21:09.525Z,19.39
2022-08-22T22:23:58.393Z,19.35
2022-08-22T22:26:44.351Z,19.26
2022-08-22T22:29:29.741Z,19.19
2022-08-22T22:32:15.266Z,19.20
2022-08-22T22:35:00.598Z,19.24
2022-08-22T22:37:46.641Z,19.04
2022-08-22T22:40:32.173Z,19.02
2022-08-22T22:43:17.802Z,18.98
2022-08-22T22:46:03.592Z,18.97
2022-08-22T22:48:48.999Z,19.04
2022-08-22T22:51:34.617Z,18.83
2022-08-22T22:54:20.614Z,18.84
2022-08-22T22:57:14.536Z,18.72
2022-08-22T23:00:04.131Z,18.81
2022-08-22T23:02:49.697Z,18.83
2022-08-22T23:05:35.705Z,18.71
2022-08-22T23:08:20.969Z,18.69
2022-08-22T23:11:15.270Z,18.67
2022-08-22T23:14:01.567Z,18.53
2022-08-22T23:16:47.127Z,18.49
2022-08-22T23:19:32.911Z,18.41
2022-08-22T23:22:19.028Z,18.39
2022-08-22T23:25:05.198Z,18.44
2022-08-22T23:27:52.498Z,18.35
2022-08-22T23:30:37.961Z,18.34
2022-08-22T23:33:23.517Z,18.34
2022-08-22T23:36:15.793Z,18.24
2022-08-22T23:39:02.083Z,18.27
2022-08-22T23:41:48.170Z,18.14
2022-08-22T23:44:35.882Z,18.18
2022-08-22T23:47:21.288Z,18.22
2022-08-22T23:50:07.041Z,18.19
2022-08-22T23:52:52.639Z,18.14
2022-08-22T23:55:37.961Z,18.16
2022-08-22T23:58:23.371Z,18.08
